createdAt,value
2023-04-13T00:01:27.584Z,1.15
2023-04-13T00:04:31.275Z,1.30
2023-04-13T00:07:33.893Z,1.40
2023-04-13T00:10:36.444Z,1.40
2023-04-13T00:13:43.125Z,1.33
2023-04-13T00:16:47.101Z,1.38
2023-04-13T00:19:50.188Z,1.08
2023-04-13T00:22:52.057Z,1.55
2023-04-13T00:25:53.583Z,1.45
2023-04-13T00:28:55.126Z,1.33
2023-04-13T00:31:56.844Z,1.30
2023-04-13T00:34:58.433Z,1.42
2023-04-13T00:38:02.562Z,1.10
2023-04-13T00:41:04.346Z,1.10
2023-04-13T00:44:10.423Z,1.45
2023-04-13T00:47:12.162Z,1.55
2023-04-13T00:50:16.513Z,1.73
2023-04-13T00:53:18.545Z,1.30
2023-04-13T00:56:22.916Z,1.95
2023-04-13T00:59:27.593Z,1.30
2023-04-13T01:02:29.733Z,1.65
2023-04-13T01:05:39.774Z,1.90
2023-04-13T01:09:07.085Z,1.50
2023-04-13T01:12:18.870Z,1.63
2023-04-13T01:15:21.355Z,1.50
2023-04-13T01:18:25.678Z,1.70
2023-04-13T01:21:30.278Z,1.60
2023-04-13T01:24:56.618Z,1.58
2023-04-13T01:28:07.570Z,1.40
2023-04-13T01:31:12.636Z,1.55
2023-04-13T01:34:14.355Z,1.60
2023-04-13T01:37:17.346Z,1.60
2023-04-13T01:40:22.970Z,1.50
2023-04-13T01:43:26.625Z,1.25
2023-04-13T01:46:31.539Z,1.20
2023-04-13T01:49:33.719Z,1.40
2023-04-13T01:52:39.582Z,1.52
2023-04-13T01:55:43.796Z,1.50
2023-04-13T01:58:49.660Z,1.50
2023-04-13T02:01:51.316Z,1.50
2023-04-13T02:04:52.968Z,1.17
2023-04-13T02:07:54.909Z,1.52
2023-04-13T02:10:56.787Z,1.30
2023-04-13T02:13:58.817Z,1.70
2023-04-13T02:17:00.560Z,1.17
2023-04-13T02:20:02.379Z,1.30
2023-04-13T02:23:03.940Z,1.58
2023-04-13T02:26:10.320Z,1.70
2023-04-13T02:29:11.876Z,1.83
2023-04-13T02:32:13.561Z,1.23
2023-04-13T02:35:15.922Z,1.30
2023-04-13T02:38:17.652Z,1.27
2023-04-13T02:41:22.854Z,1.25
2023-04-13T02:44:24.509Z,1.50
2023-04-13T02:47:26.262Z,1.55
2023-04-13T02:50:27.970Z,1.20
2023-04-13T02:53:29.526Z,1.70
2023-04-13T02:56:31.122Z,1.40
2023-04-13T02:59:33.818Z,1.40
2023-04-13T03:02:36.002Z,1.30
2023-04-13T03:05:38.636Z,1.25
2023-04-13T03:08:40.347Z,1.80
2023-04-13T03:11:42.498Z,1.50
2023-04-13T03:14:44.122Z,1.38
2023-04-13T03:17:45.787Z,1.40
2023-04-13T03:20:47.476Z,1.40
2023-04-13T03:23:49.080Z,1.63
2023-04-13T03:26:50.642Z,1.50
2023-04-13T03:29:52.276Z,1.33
2023-04-13T03:32:53.918Z,1.52
2023-04-13T03:35:55.538Z,1.30
2023-04-13T03:38:57.995Z,1.40
2023-04-13T03:41:59.626Z,1.05
2023-04-13T03:45:01.217Z,1.20
2023-04-13T03:48:02.819Z,1.30
2023-04-13T03:51:04.519Z,1.10
2023-04-13T03:54:06.160Z,1.30
2023-04-13T03:57:07.761Z,1.27
2023-04-13T04:00:14.339Z,1.20
2023-04-13T04:03:17.394Z,1.20
2023-04-13T04:06:19.066Z,1.60
2023-04-13T04:09:20.659Z,1.08
2023-04-13T04:12:22.234Z,1.00
2023-04-13T04:15:23.876Z,1.30
2023-04-13T04:18:25.612Z,1.20
2023-04-13T04:21:33.866Z,1.40
2023-04-13T04:24:35.877Z,1.20
2023-04-13T04:27:40.268Z,1.23
2023-04-13T04:30:41.847Z,1.08
2023-04-13T04:33:44.172Z,1.40
2023-04-13T04:36:45.746Z,1.20
2023-04-13T04:39:47.885Z,1.25
2023-04-13T04:42:49.427Z,1.40
2023-04-13T04:45:51.964Z,1.40
2023-04-13T04:48:54.415Z,1.20
2023-04-13T04:51:57.389Z,1.10
2023-04-13T04:54:58.997Z,1.60
2023-04-13T04:58:00.551Z,1.48
2023-04-13T05:01:02.602Z,1.20
2023-04-13T05:04:04.461Z,1.10
2023-04-13T05:07:06.101Z,1.60
2023-04-13T05:10:09.159Z,1.30
2023-04-13T05:13:10.820Z,1.50
2023-04-13T05:16:12.708Z,1.63
2023-04-13T05:19:14.410Z,1.35
2023-04-13T05:22:16.060Z,1.80
2023-04-13T05:25:17.897Z,1.80
2023-04-13T05:28:21.681Z,1.70
2023-04-13T05:31:27.178Z,1.50
2023-04-13T05:34:29.428Z,1.58
2023-04-13T05:37:31.925Z,2.08
2023-04-13T05:40:35.091Z,1.70
2023-04-13T05:43:36.642Z,1.60
2023-04-13T05:46:38.329Z,2.42
2023-04-13T05:49:39.921Z,1.80
2023-04-13T05:52:41.852Z,1.83
2023-04-13T05:55:45.178Z,2.40
2023-04-13T05:58:48.762Z,2.20
2023-04-13T06:01:52.301Z,2.40
2023-04-13T06:04:54.715Z,2.10
2023-04-13T06:07:56.609Z,2.13
2023-04-13T06:10:59.378Z,2.20
2023-04-13T06:14:02.462Z,2.97
2023-04-13T06:17:04.045Z,2.50
2023-04-13T06:20:07.655Z,2.47
2023-04-13T06:23:09.403Z,2.40
2023-04-13T06:26:11.490Z,2.35
2023-04-13T06:29:13.086Z,2.38
2023-04-13T06:32:14.644Z,1.98
2023-04-13T06:35:17.373Z,2.60
2023-04-13T06:38:19.705Z,2.20
2023-04-13T06:41:21.288Z,2.42
2023-04-13T06:44:23.505Z,2.45
2023-04-13T06:47:25.116Z,2.25
2023-04-13T06:50:26.725Z,2.55
2023-04-13T06:53:28.342Z,2.40
2023-04-13T06:56:30.045Z,2.80
2023-04-13T06:59:31.663Z,2.42
2023-04-13T07:02:33.493Z,2.53
2023-04-13T07:05:35.464Z,2.55
2023-04-13T07:08:37.153Z,2.05
2023-04-13T07:11:38.752Z,2.33
2023-04-13T07:14:41.472Z,2.50
2023-04-13T07:17:43.386Z,2.47
2023-04-13T07:20:45.355Z,2.13
2023-04-13T07:23:47.024Z,2.30
2023-04-13T07:26:49.099Z,1.80
2023-04-13T07:29:54.943Z,2.22
2023-04-13T07:32:56.580Z,2.17
2023-04-13T07:35:58.346Z,2.20
2023-04-13T07:39:01.365Z,1.73
2023-04-13T07:42:03.215Z,2.47
2023-04-13T07:45:06.445Z,2.13
2023-04-13T07:48:08.106Z,1.90
2023-04-13T07:51:21.901Z,1.90
2023-04-13T07:54:23.513Z,2.20
2023-04-13T07:57:25.146Z,2.20
2023-04-13T08:00:27.101Z,2.00
2023-04-13T08:03:36.183Z,1.95
2023-04-13T08:06:38.164Z,1.88
2023-04-13T08:09:41.499Z,1.70
2023-04-13T08:12:43.195Z,1.77
2023-04-13T08:15:47.957Z,2.20
2023-04-13T08:18:49.614Z,2.17
2023-04-13T08:21:52.346Z,2.15
2023-04-13T08:24:54.541Z,2.22
2023-04-13T08:27:56.416Z,2.03
2023-04-13T08:30:58.113Z,2.15
2023-04-13T08:33:59.716Z,2.70
2023-04-13T08:37:01.264Z,2.30
2023-04-13T08:40:07.237Z,2.42
2023-04-13T08:43:08.901Z,2.35
2023-04-13T08:46:11.447Z,2.42
2023-04-13T08:49:13.373Z,2.97
2023-04-13T08:52:16.764Z,2.05
2023-04-13T08:55:18.685Z,2.60
2023-04-13T08:58:26.340Z,2.60
2023-04-13T09:01:28.876Z,2.63
2023-04-13T09:04:35.764Z,2.63
2023-04-13T09:07:38.656Z,3.22
2023-04-13T09:10:40.883Z,2.60
2023-04-13T09:13:49.421Z,3.10
2023-04-13T09:16:51.208Z,3.15
2023-04-13T09:19:53.669Z,2.53
2023-04-13T09:22:55.285Z,2.42
2023-04-13T09:26:07.924Z,2.95
2023-04-13T09:29:13.213Z,2.85
2023-04-13T09:32:21.717Z,2.50
2023-04-13T09:35:29.333Z,3.10
2023-04-13T09:38:32.848Z,2.90
2023-04-13T09:41:36.430Z,3.20
2023-04-13T09:44:38.038Z,3.13
2023-04-13T09:47:40.638Z,2.55
2023-04-13T09:50:42.394Z,2.60
2023-04-13T09:53:47.201Z,3.05
2023-04-13T09:56:54.489Z,2.88
2023-04-13T09:59:58.853Z,3.38
2023-04-13T10:03:01.607Z,2.92
2023-04-13T10:06:07.774Z,2.70
2023-04-13T10:09:10.541Z,3.15
2023-04-13T10:12:13.562Z,2.63
2023-04-13T10:15:31.249Z,2.67
2023-04-13T10:18:42.276Z,2.90
2023-04-13T10:21:47.639Z,2.70
2023-04-13T10:24:50.663Z,3.03
2023-04-13T10:27:59.458Z,2.95
2023-04-13T10:31:05.472Z,3.30
2023-04-13T10:34:08.233Z,3.60
2023-04-13T10:37:21.556Z,2.83
2023-04-13T10:40:23.326Z,3.15
2023-04-13T10:43:26.267Z,3.88
2023-04-13T10:46:29.023Z,3.22
2023-04-13T10:49:31.723Z,3.47
2023-04-13T10:52:33.349Z,3.50
2023-04-13T10:55:35.287Z,4.03
2023-04-13T10:58:36.914Z,3.95
2023-04-13T11:01:41.074Z,3.83
2023-04-13T11:04:45.202Z,3.50
2023-04-13T11:07:55.472Z,3.53
2023-04-13T11:10:57.634Z,3.40
2023-04-13T11:13:59.359Z,3.55
2023-04-13T11:17:01.148Z,3.42
2023-04-13T11:20:06.874Z,3.78
2023-04-13T11:23:18.860Z,3.38
2023-04-13T11:26:34.849Z,3.85
2023-04-13T11:29:36.429Z,3.08
2023-04-13T11:32:41.440Z,3.38
2023-04-13T11:35:49.778Z,3.15
2023-04-13T11:38:53.374Z,3.70
2023-04-13T11:41:56.360Z,3.00
2023-04-13T11:44:58.035Z,3.38
2023-04-13T11:47:59.958Z,3.20
2023-04-13T11:51:01.814Z,3.17
2023-04-13T11:54:03.725Z,3.50
2023-04-13T11:57:06.121Z,3.67
2023-04-13T12:00:18.906Z,3.47
2023-04-13T12:06:25.844Z,3.50
2023-04-13T12:09:54.779Z,3.33
2023-04-13T12:13:16.045Z,2.70
2023-04-13T12:16:55.557Z,3.10
2023-04-13T12:19:54.884Z,2.70
2023-04-13T12:23:05.840Z,3.15
2023-04-13T12:26:41.740Z,3.42
2023-04-13T12:29:41.618Z,3.28
2023-04-13T12:32:45.754Z,3.10
2023-04-13T12:35:47.348Z,3.38
2023-04-13T12:38:49.001Z,3.85
2023-04-13T12:41:51.141Z,3.20
2023-04-13T12:44:52.671Z,2.83
2023-04-13T12:47:54.290Z,3.38
2023-04-13T12:50:55.914Z,3.13
2023-04-13T12:53:57.454Z,3.10
2023-04-13T12:56:59.663Z,3.30
2023-04-13T13:00:01.264Z,4.07
2023-04-13T13:03:13.638Z,3.05
2023-04-13T13:06:16.594Z,2.80
2023-04-13T13:09:18.376Z,3.35
2023-04-13T13:12:20.052Z,3.10
2023-04-13T13:15:21.678Z,2.92
2023-04-13T13:18:23.252Z,2.78
2023-04-13T13:21:24.959Z,3.15
2023-04-13T13:24:26.609Z,2.70
2023-04-13T13:30:32.704Z,2.90
2023-04-13T13:33:34.443Z,3.17
2023-04-13T13:36:36.231Z,3.42
2023-04-13T13:39:38.351Z,2.90
2023-04-13T13:42:51.111Z,2.72
2023-04-13T13:45:53.464Z,3.00
2023-04-13T13:48:55.301Z,3.72
2023-04-13T13:51:56.933Z,2.97
2023-04-13T13:54:58.498Z,3.00
2023-04-13T13:58:00.241Z,2.47
2023-04-13T14:01:02.755Z,2.25
2023-04-13T14:04:04.827Z,2.97
2023-04-13T14:07:06.413Z,2.67
2023-04-13T14:10:10.126Z,2.63
2023-04-13T14:13:11.678Z,2.63
2023-04-13T14:16:13.313Z,2.70
2023-04-13T14:19:14.952Z,2.70
2023-04-13T14:22:16.813Z,3.35
2023-04-13T14:25:18.518Z,3.20
2023-04-13T14:28:20.130Z,3.65
2023-04-13T14:31:21.989Z,2.95
2023-04-13T14:34:23.664Z,3.15
2023-04-13T14:37:27.022Z,2.40
2023-04-13T14:40:29.175Z,3.45
2023-04-13T14:43:30.753Z,2.70
2023-04-13T14:46:32.378Z,2.80
2023-04-13T14:49:34.018Z,2.63
2023-04-13T14:52:35.870Z,2.72
2023-04-13T14:55:37.408Z,2.60
2023-04-13T14:58:39.100Z,2.60
2023-04-13T15:01:40.994Z,2.80
2023-04-13T15:04:42.733Z,2.63
2023-04-13T15:07:45.951Z,2.08
2023-04-13T15:10:47.935Z,2.55
2023-04-13T15:13:50.076Z,2.70
2023-04-13T15:16:51.867Z,2.63
2023-04-13T15:19:53.450Z,2.42
2023-04-13T15:22:55.654Z,2.53
2023-04-13T15:25:57.361Z,2.05
2023-04-13T15:28:59.287Z,2.38
2023-04-13T15:32:01.395Z,2.78
2023-04-13T15:35:03.254Z,2.00
2023-04-13T15:38:09.306Z,2.30
2023-04-13T15:41:11.302Z,2.30
2023-04-13T15:44:12.867Z,2.28
2023-04-13T15:47:14.443Z,2.67
2023-04-13T15:50:17.394Z,2.03
2023-04-13T15:53:18.975Z,3.03
2023-04-13T15:56:21.137Z,2.30
2023-04-13T15:59:23.620Z,2.15
2023-04-13T16:02:26.216Z,2.47
2023-04-13T16:05:29.438Z,3.20
2023-04-13T16:08:32.940Z,2.63
2023-04-13T16:11:38.451Z,2.30
2023-04-13T16:14:44.947Z,2.55
2023-04-13T16:17:47.769Z,2.45
2023-04-13T16:20:52.541Z,2.53
2023-04-13T16:23:54.268Z,2.72
2023-04-13T16:26:55.934Z,2.50
2023-04-13T16:29:58.611Z,2.33
2023-04-13T16:33:00.357Z,2.75
2023-04-13T16:36:01.950Z,2.65
2023-04-13T16:39:10.855Z,2.05
2023-04-13T16:42:13.878Z,2.63
2023-04-13T16:45:15.681Z,2.42
2023-04-13T16:48:17.257Z,2.50
2023-04-13T16:51:18.856Z,2.40
2023-04-13T16:54:21.079Z,2.30
2023-04-13T16:57:22.700Z,2.58
2023-04-13T17:00:24.280Z,1.92
2023-04-13T17:03:26.753Z,2.15
2023-04-13T17:06:28.405Z,1.90
2023-04-13T17:09:29.988Z,1.88
2023-04-13T17:12:31.701Z,2.30
2023-04-13T17:15:33.277Z,2.20
2023-04-13T17:18:34.994Z,2.13
2023-04-13T17:21:36.724Z,2.22
2023-04-13T17:24:38.407Z,2.20
2023-04-13T17:27:40.112Z,2.17
2023-04-13T17:30:41.658Z,2.25
2023-04-13T17:33:44.935Z,2.10
2023-04-13T17:36:46.687Z,2.28
2023-04-13T17:39:50.650Z,2.28
2023-04-13T17:42:52.297Z,2.45
2023-04-13T17:45:53.907Z,2.40
2023-04-13T17:48:58.848Z,1.88
2023-04-13T17:52:00.880Z,2.13
2023-04-13T17:55:02.490Z,2.60
2023-04-13T17:58:04.369Z,2.53
2023-04-13T18:01:10.781Z,2.53
2023-04-13T18:04:15.273Z,2.58
2023-04-13T18:07:17.016Z,2.80
2023-04-13T18:10:18.623Z,3.28
2023-04-13T18:13:20.878Z,3.35
2023-04-13T18:16:22.773Z,2.38
2023-04-13T18:19:24.718Z,2.58
2023-04-13T18:22:26.998Z,2.92
2023-04-13T18:25:28.546Z,2.80
2023-04-13T18:28:30.347Z,2.50
2023-04-13T18:31:32.175Z,2.20
2023-04-13T18:34:35.650Z,2.80
2023-04-13T18:37:37.763Z,2.55
2023-04-13T18:40:40.223Z,2.80
2023-04-13T18:43:41.836Z,2.75
2023-04-13T18:46:43.468Z,2.42
2023-04-13T18:49:45.163Z,2.50
2023-04-13T18:52:46.768Z,2.60
2023-04-13T18:55:52.325Z,2.80
2023-04-13T18:58:53.896Z,2.38
2023-04-13T19:01:55.592Z,2.70
2023-04-13T19:04:57.359Z,2.25
2023-04-13T19:08:00.145Z,2.88
2023-04-13T19:11:01.720Z,2.65
2023-04-13T19:14:03.333Z,2.90
2023-04-13T19:17:05.579Z,2.75
2023-04-13T19:20:10.191Z,3.33
2023-04-13T19:23:11.810Z,2.80
2023-04-13T19:26:13.376Z,3.08
2023-04-13T19:29:15.566Z,3.63
2023-04-13T19:32:17.222Z,3.35
2023-04-13T19:35:21.438Z,3.33
2023-04-13T19:38:23.034Z,3.17
2023-04-13T19:41:24.585Z,3.47
2023-04-13T19:44:26.961Z,3.10
2023-04-13T19:47:28.593Z,3.97
2023-04-13T19:50:30.249Z,3.42
2023-04-13T19:53:31.820Z,3.38
2023-04-13T19:56:36.450Z,3.20
2023-04-13T19:59:39.501Z,3.35
2023-04-13T20:02:41.287Z,4.03
2023-04-13T20:05:43.268Z,3.30
2023-04-13T20:08:45.424Z,3.22
2023-04-13T20:11:47.069Z,3.05
2023-04-13T20:14:49.357Z,3.50
2023-04-13T20:17:51.260Z,3.40
2023-04-13T20:20:53.012Z,3.13
2023-04-13T20:23:54.569Z,3.08
2023-04-13T20:26:56.143Z,2.90
2023-04-13T20:29:57.780Z,3.28
2023-04-13T20:32:59.459Z,3.40
2023-04-13T20:36:01.494Z,3.30
2023-04-13T20:39:03.231Z,3.05
2023-04-13T20:42:05.926Z,2.97
2023-04-13T20:45:10.308Z,3.00
2023-04-13T20:51:19.299Z,3.10
2023-04-13T20:54:21.443Z,3.28
2023-04-13T20:57:23.542Z,2.60
2023-04-13T21:00:27.264Z,3.03
2023-04-13T21:03:30.646Z,3.55
2023-04-13T21:06:34.893Z,3.30
2023-04-13T21:09:37.144Z,2.70
2023-04-13T21:12:38.734Z,3.15
2023-04-13T21:15:40.495Z,3.15
2023-04-13T21:18:42.033Z,3.10
2023-04-13T21:21:43.597Z,3.08
2023-04-13T21:24:46.571Z,3.47
2023-04-13T21:27:48.156Z,3.95
2023-04-13T21:30:49.772Z,3.30
2023-04-13T21:33:51.541Z,2.95
2023-04-13T21:36:53.074Z,3.70
2023-04-13T21:39:55.175Z,3.28
2023-04-13T21:42:56.910Z,3.10
2023-04-13T21:45:58.609Z,3.38
2023-04-13T21:49:00.383Z,3.60
2023-04-13T21:52:02.095Z,3.65
2023-04-13T21:55:03.941Z,2.63
2023-04-13T21:58:05.568Z,2.83
2023-04-13T22:01:07.519Z,3.00
2023-04-13T22:04:09.244Z,2.97
2023-04-13T22:07:10.999Z,3.22
2023-04-13T22:10:12.638Z,2.72
2023-04-13T22:13:14.225Z,3.10
2023-04-13T22:16:16.818Z,2.85
2023-04-13T22:19:18.544Z,3.05
2023-04-13T22:22:20.272Z,3.35
2023-04-13T22:25:25.119Z,3.13
2023-04-13T22:28:30.288Z,2.80
2023-04-13T22:31:31.998Z,2.78
2023-04-13T22:34:34.575Z,3.25
2023-04-13T22:37:36.665Z,2.95
2023-04-13T22:40:38.969Z,3.30
2023-04-13T22:43:40.803Z,2.72
2023-04-13T22:46:42.430Z,2.90
2023-04-13T22:49:44.107Z,2.67
2023-04-13T22:52:45.981Z,3.33
2023-04-13T22:55:47.557Z,3.65
2023-04-13T22:58:49.099Z,3.13
2023-04-13T23:01:50.869Z,3.05
2023-04-13T23:04:52.653Z,3.20
2023-04-13T23:07:54.366Z,3.38
2023-04-13T23:10:55.985Z,2.90
2023-04-13T23:13:57.585Z,3.30
2023-04-13T23:16:59.188Z,3.42
2023-04-13T23:20:00.875Z,3.05
2023-04-13T23:23:02.441Z,3.00
2023-04-13T23:26:04.084Z,3.20
2023-04-13T23:29:05.730Z,3.08
2023-04-13T23:32:07.432Z,2.70
2023-04-13T23:35:09.458Z,2.38
2023-04-13T23:38:11.097Z,3.70
2023-04-13T23:41:12.656Z,3.40
2023-04-13T23:44:14.407Z,3.40
2023-04-13T23:47:16.253Z,3.75
2023-04-13T23:50:18.083Z,3.22
2023-04-13T23:53:22.978Z,3.42
2023-04-13T23:56:24.519Z,3.42
2023-04-13T23:59:26.134Z,3.10
